Time;durP1;ratioP1;P1;durP2;ratioP2;P2;SDS_P1;SDS_P2;PMS_P1;PMS_P2;Temp;Humidity;BMP_temperature;BMP_pressure;BME280_temperature;BME280_humidity;BME280_pressure;Samples;Min_cycle;Max_cycle;Signal;HPM_P1;HPM_P2
2024/04/04 00:01:51;;;;;;;12.45;1.70;;;;;;;;;;6139718;23;20040;-70
2024/04/04 00:04:16;;;;;;;9.25;1.65;;;;;;;;;;6145260;23;20064;-71
2024/04/04 00:06:43;;;;;;;7.95;1.20;;;;;;;;;;6151212;23;20055;-70
2024/04/04 00:09:08;;;;;;;6.78;1.50;;;;;;;;;;6143878;23;20032;-71
2024/04/04 00:11:33;;;;;;;5.38;1.60;;;;;;;;;;6150977;23;20451;-69
2024/04/04 00:13:59;;;;;;;9.35;1.92;;;;;;;;;;6145534;23;20086;-70
2024/04/04 00:16:24;;;;;;;10.50;1.45;;;;;;;;;;6145152;23;20032;-69
2024/04/04 00:18:50;;;;;;;8.60;1.58;;;;;;;;;;6122537;23;20091;-70
2024/04/04 00:21:15;;;;;;;5.72;1.60;;;;;;;;;;6143640;23;20021;-69
2024/04/04 00:23:41;;;;;;;7.38;1.45;;;;;;;;;;6151515;23;20063;-70
2024/04/04 00:26:06;;;;;;;7.07;1.40;;;;;;;;;;6144077;23;20025;-70
2024/04/04 00:28:32;;;;;;;13.55;1.80;;;;;;;;;;6151055;23;20020;-70
2024/04/04 00:30:58;;;;;;;7.40;1.95;;;;;;;;;;6145629;23;20028;-72
2024/04/04 00:33:23;;;;;;;5.88;1.50;;;;;;;;;;6116744;23;20984;-69
2024/04/04 00:35:49;;;;;;;7.82;1.35;;;;;;;;;;6150693;23;20601;-72
2024/04/04 00:38:14;;;;;;;8.77;1.60;;;;;;;;;;6143657;23;20036;-70
2024/04/04 00:40:40;;;;;;;9.32;2.25;;;;;;;;;;6150819;23;20021;-71
2024/04/04 00:43:05;;;;;;;6.55;1.25;;;;;;;;;;6148730;23;20049;-70
2024/04/04 00:45:31;;;;;;;8.60;1.50;;;;;;;;;;6137343;23;20021;-72
2024/04/04 00:47:57;;;;;;;6.20;1.20;;;;;;;;;;6148825;23;20021;-71
2024/04/04 00:50:23;;;;;;;6.60;1.30;;;;;;;;;;6143444;23;20079;-71
2024/04/04 00:52:49;;;;;;;5.22;1.27;;;;;;;;;;6150510;23;20029;-70
2024/04/04 00:55:15;;;;;;;8.98;1.92;;;;;;;;;;6123236;23;20021;-71
2024/04/04 00:57:41;;;;;;;12.38;1.65;;;;;;;;;;6144804;23;20021;-72
2024/04/04 01:00:06;;;;;;;8.48;1.30;;;;;;;;;;6144754;23;20715;-70
2024/04/04 01:02:32;;;;;;;10.13;1.83;;;;;;;;;;6144302;23;20076;-70
2024/04/04 01:04:57;;;;;;;8.40;1.52;;;;;;;;;;6150426;23;20078;-71
2024/04/04 01:07:23;;;;;;;5.18;1.40;;;;;;;;;;6143661;23;20017;-73
2024/04/04 01:09:48;;;;;;;9.60;2.13;;;;;;;;;;6125012;23;20025;-70
2024/04/04 01:12:14;;;;;;;8.20;1.40;;;;;;;;;;6145561;23;20025;-70
2024/04/04 01:14:39;;;;;;;9.50;1.70;;;;;;;;;;6139102;23;20697;-71
2024/04/04 01:17:05;;;;;;;10.63;1.73;;;;;;;;;;6149613;23;20051;-70
2024/04/04 01:19:30;;;;;;;5.15;1.40;;;;;;;;;;6143689;23;20060;-71
2024/04/04 01:21:56;;;;;;;4.50;1.27;;;;;;;;;;6149942;23;20517;-69
2024/04/04 01:24:21;;;;;;;7.75;1.42;;;;;;;;;;6149989;23;20033;-69
2024/04/04 01:26:46;;;;;;;6.57;1.40;;;;;;;;;;6114015;23;20037;-69
2024/04/04 01:29:12;;;;;;;9.40;1.40;;;;;;;;;;6145097;23;20028;-70
2024/04/04 01:31:37;;;;;;;9.65;1.70;;;;;;;;;;6142809;23;20096;-71
2024/04/04 01:34:03;;;;;;;8.13;1.58;;;;;;;;;;6150755;23;20032;-70
2024/04/04 01:36:28;;;;;;;10.82;1.70;;;;;;;;;;6124254;23;20738;-70
2024/04/04 01:38:55;;;;;;;7.00;1.55;;;;;;;;;;6144885;23;20463;-71
2024/04/04 01:41:20;;;;;;;7.35;1.88;;;;;;;;;;6120703;23;20057;-70
2024/04/04 01:43:46;;;;;;;7.93;1.48;;;;;;;;;;6139283;23;20021;-71
2024/04/04 01:46:11;;;;;;;7.55;1.45;;;;;;;;;;6148309;23;20021;-72
2024/04/04 01:48:37;;;;;;;10.95;1.98;;;;;;;;;;6150535;23;20032;-70
2024/04/04 01:51:02;;;;;;;8.68;1.60;;;;;;;;;;6143131;23;20029;-70
2024/04/04 01:53:27;;;;;;;6.55;1.15;;;;;;;;;;6150393;23;20025;-72
2024/04/04 01:55:59;;;;;;;5.30;1.20;;;;;;;;;;6138284;23;20021;-71
2024/04/04 01:58:25;;;;;;;9.77;1.75;;;;;;;;;;6141328;23;20032;-70
2024/04/04 02:00:50;;;;;;;10.55;3.10;;;;;;;;;;6117520;23;20052;-71
2024/04/04 02:03:16;;;;;;;9.48;2.35;;;;;;;;;;6146856;23;20696;-70
2024/04/04 02:05:41;;;;;;;9.52;1.52;;;;;;;;;;6148691;23;20021;-68
2024/04/04 02:08:07;;;;;;;5.65;1.23;;;;;;;;;;6140456;23;20180;-70
2024/04/04 02:10:33;;;;;;;10.77;1.30;;;;;;;;;;6143831;23;20068;-71
2024/04/04 02:12:59;;;;;;;7.68;1.40;;;;;;;;;;6137339;23;20024;-70
2024/04/04 02:15:24;;;;;;;7.18;1.55;;;;;;;;;;6147881;23;20482;-70
2024/04/04 02:17:50;;;;;;;8.85;1.45;;;;;;;;;;6149186;23;20482;-72
2024/04/04 02:20:17;;;;;;;7.50;1.70;;;;;;;;;;6117106;23;20029;-70
2024/04/04 02:22:42;;;;;;;7.47;1.10;;;;;;;;;;6147454;23;20029;-70
2024/04/04 02:25:09;;;;;;;7.00;1.38;;;;;;;;;;6137278;23;20035;-71
2024/04/04 02:27:34;;;;;;;7.32;1.48;;;;;;;;;;6143445;23;20025;-70
2024/04/04 02:30:00;;;;;;;7.63;1.25;;;;;;;;;;6148157;23;20075;-69
2024/04/04 02:32:27;;;;;;;4.88;1.33;;;;;;;;;;6166459;23;20025;-68
2024/04/04 02:34:53;;;;;;;6.35;1.50;;;;;;;;;;6148279;23;20541;-71
2024/04/04 02:37:18;;;;;;;6.45;1.30;;;;;;;;;;6140492;23;20032;-69
2024/04/04 02:39:44;;;;;;;7.05;1.27;;;;;;;;;;6119148;23;20565;-69
2024/04/04 02:42:09;;;;;;;8.18;1.25;;;;;;;;;;6142819;23;20029;-70
2024/04/04 02:44:35;;;;;;;9.80;1.70;;;;;;;;;;6141451;23;20040;-70
2024/04/04 02:47:01;;;;;;;6.07;1.40;;;;;;;;;;6148057;23;20036;-70
2024/04/04 02:49:27;;;;;;;3.08;1.38;;;;;;;;;;6114289;23;20029;-70
2024/04/04 02:51:52;;;;;;;5.43;1.48;;;;;;;;;;6148072;23;20021;-69
2024/04/04 02:54:18;;;;;;;9.93;1.80;;;;;;;;;;6160332;23;20402;-71
2024/04/04 02:56:46;;;;;;;7.35;1.25;;;;;;;;;;6143380;23;20370;-70
2024/04/04 02:59:11;;;;;;;6.55;1.40;;;;;;;;;;6121217;23;20022;-69
2024/04/04 03:01:37;;;;;;;11.57;1.75;;;;;;;;;;6139458;23;20363;-69
2024/04/04 03:04:03;;;;;;;4.50;1.38;;;;;;;;;;6148090;23;20764;-69
2024/04/04 03:06:28;;;;;;;8.07;1.42;;;;;;;;;;6166042;23;20451;-72
2024/04/04 03:08:54;;;;;;;7.03;1.40;;;;;;;;;;6124867;23;20024;-69
2024/04/04 03:11:19;;;;;;;6.60;1.38;;;;;;;;;;6148164;23;20039;-69
2024/04/04 03:13:45;;;;;;;7.18;1.60;;;;;;;;;;6142672;23;20021;-69
2024/04/04 03:16:10;;;;;;;5.25;1.35;;;;;;;;;;6148577;23;20124;-69
2024/04/04 03:18:35;;;;;;;5.32;1.13;;;;;;;;;;6139787;23;20021;-69
2024/04/04 03:21:01;;;;;;;7.18;1.40;;;;;;;;;;6119936;23;20565;-70
2024/04/04 03:23:26;;;;;;;6.00;1.52;;;;;;;;;;6149255;23;20448;-70
2024/04/04 03:25:52;;;;;;;8.25;1.80;;;;;;;;;;6142410;23;20021;-70
2024/04/04 03:28:17;;;;;;;8.25;1.52;;;;;;;;;;6149273;23;20032;-70
2024/04/04 03:30:43;;;;;;;5.60;1.23;;;;;;;;;;6142768;23;20025;-69
2024/04/04 03:33:08;;;;;;;5.32;1.30;;;;;;;;;;6143840;23;20028;-70
2024/04/04 03:35:37;;;;;;;5.80;1.50;;;;;;;;;;6144656;23;20629;-71
2024/04/04 03:38:03;;;;;;;7.55;1.60;;;;;;;;;;6142977;23;20021;-69
2024/04/04 03:40:29;;;;;;;4.78;1.30;;;;;;;;;;6148549;23;20028;-69
2024/04/04 03:42:55;;;;;;;10.02;1.77;;;;;;;;;;6142424;23;20028;-71
2024/04/04 03:45:20;;;;;;;3.45;1.23;;;;;;;;;;6149127;23;20020;-70
2024/04/04 03:47:46;;;;;;;9.10;1.30;;;;;;;;;;6144531;23;20036;-70
2024/04/04 03:50:11;;;;;;;7.60;1.70;;;;;;;;;;6145520;23;20021;-69
2024/04/04 03:52:37;;;;;;;5.13;1.42;;;;;;;;;;6125058;23;20075;-70
2024/04/04 03:55:02;;;;;;;6.47;1.50;;;;;;;;;;6143030;23;20663;-70
2024/04/04 03:57:28;;;;;;;4.47;1.40;;;;;;;;;;6144652;23;20487;-69
2024/04/04 03:59:53;;;;;;;7.30;1.40;;;;;;;;;;6139243;23;20036;-69
2024/04/04 04:02:19;;;;;;;6.20;1.77;;;;;;;;;;6122390;23;20032;-72
2024/04/04 04:04:44;;;;;;;4.70;1.50;;;;;;;;;;6148946;23;20079;-72
2024/04/04 04:07:10;;;;;;;5.60;1.50;;;;;;;;;;6141838;23;20025;-72
2024/04/04 04:09:35;;;;;;;8.00;1.50;;;;;;;;;;6123927;23;20032;-72
2024/04/04 04:12:01;;;;;;;5.80;1.60;;;;;;;;;;6138480;23;20028;-72
2024/04/04 04:14:26;;;;;;;3.95;1.25;;;;;;;;;;6143433;23;20021;-72
2024/04/04 04:16:52;;;;;;;5.80;1.80;;;;;;;;;;6149469;23;20025;-72
2024/04/04 04:19:17;;;;;;;7.15;1.60;;;;;;;;;;6117434;23;20025;-72
2024/04/04 04:21:42;;;;;;;4.57;1.88;;;;;;;;;;6125283;23;20707;-72
2024/04/04 04:24:08;;;;;;;3.78;1.50;;;;;;;;;;6142106;23;20025;-73
2024/04/04 04:26:33;;;;;;;6.20;1.85;;;;;;;;;;6144363;23;20108;-72
2024/04/04 04:28:59;;;;;;;4.03;1.88;;;;;;;;;;6144689;23;20091;-72
2024/04/04 04:31:26;;;;;;;5.70;1.95;;;;;;;;;;6142165;23;20051;-72
2024/04/04 04:33:56;;;;;;;7.88;2.20;;;;;;;;;;6148891;23;20029;-73
2024/04/04 04:36:22;;;;;;;6.78;2.97;;;;;;;;;;6142486;23;20025;-71
2024/04/04 04:38:48;;;;;;;7.95;2.90;;;;;;;;;;6149411;23;20036;-72
2024/04/04 04:41:13;;;;;;;4.10;2.30;;;;;;;;;;6140851;23;20025;-71
2024/04/04 04:43:42;;;;;;;6.88;2.38;;;;;;;;;;6139498;23;20048;-71
2024/04/04 04:46:08;;;;;;;7.63;3.05;;;;;;;;;;6148896;23;20752;-70
2024/04/04 04:48:34;;;;;;;8.15;2.50;;;;;;;;;;6143754;23;20348;-70
2024/04/04 04:50:59;;;;;;;6.97;3.00;;;;;;;;;;6150668;23;20123;-71
2024/04/04 04:53:24;;;;;;;7.38;2.83;;;;;;;;;;6142292;23;20072;-70
2024/04/04 04:55:50;;;;;;;5.22;2.88;;;;;;;;;;6144259;23;20079;-71
2024/04/04 04:58:17;;;;;;;6.30;2.70;;;;;;;;;;6148887;23;20017;-70
2024/04/04 05:00:43;;;;;;;6.35;2.78;;;;;;;;;;6142681;23;20051;-71
2024/04/04 05:03:09;;;;;;;6.45;2.72;;;;;;;;;;6124981;23;20716;-71
2024/04/04 05:05:35;;;;;;;6.00;2.83;;;;;;;;;;6144725;23;20071;-73
2024/04/04 05:08:01;;;;;;;7.15;2.88;;;;;;;;;;6147149;23;20133;-71
2024/04/04 05:10:29;;;;;;;6.05;2.50;;;;;;;;;;6144949;23;20021;-70
2024/04/04 05:12:54;;;;;;;5.32;2.85;;;;;;;;;;6143744;23;20440;-71
2024/04/04 05:15:20;;;;;;;11.30;3.42;;;;;;;;;;6150533;23;20021;-71
2024/04/04 05:17:45;;;;;;;4.82;2.28;;;;;;;;;;6144213;23;20028;-70
2024/04/04 05:20:13;;;;;;;5.68;2.50;;;;;;;;;;6150449;23;20025;-70
2024/04/04 05:22:42;;;;;;;10.00;3.42;;;;;;;;;;6121383;23;20025;-70
2024/04/04 05:25:08;;;;;;;7.70;2.67;;;;;;;;;;6138684;23;20804;-72
2024/04/04 05:27:33;;;;;;;6.50;2.95;;;;;;;;;;6150794;23;20025;-70
2024/04/04 05:30:06;;;;;;;6.78;2.88;;;;;;;;;;6143353;23;20640;-72
2024/04/04 05:32:31;;;;;;;6.47;2.58;;;;;;;;;;6151334;23;20051;-70
2024/04/04 05:34:57;;;;;;;7.82;2.88;;;;;;;;;;6145092;23;20534;-71
2024/04/04 05:37:22;;;;;;;8.13;2.42;;;;;;;;;;6144361;23;20021;-70
2024/04/04 05:39:47;;;;;;;9.15;2.92;;;;;;;;;;6146870;23;20021;-70
2024/04/04 05:42:13;;;;;;;4.43;2.47;;;;;;;;;;6143482;23;20099;-70
2024/04/04 05:44:38;;;;;;;7.97;2.92;;;;;;;;;;6150209;23;20017;-70
2024/04/04 05:47:04;;;;;;;5.82;2.70;;;;;;;;;;6119365;23;20021;-69
2024/04/04 05:49:30;;;;;;;7.70;2.92;;;;;;;;;;6149719;23;20740;-70
2024/04/04 05:51:56;;;;;;;8.48;3.10;;;;;;;;;;6144863;23;20017;-71
2024/04/04 05:54:22;;;;;;;13.95;3.00;;;;;;;;;;6141096;23;20744;-70
2024/04/04 05:56:47;;;;;;;9.35;2.90;;;;;;;;;;6150895;23;20107;-69
2024/04/04 05:59:13;;;;;;;9.20;2.90;;;;;;;;;;6139715;23;20021;-70
2024/04/04 06:01:38;;;;;;;7.75;2.78;;;;;;;;;;6148974;23;20040;-70
2024/04/04 06:04:04;;;;;;;8.75;2.88;;;;;;;;;;6144077;23;20060;-70
2024/04/04 06:06:29;;;;;;;5.40;2.20;;;;;;;;;;6138090;23;20063;-69
2024/04/04 06:08:55;;;;;;;7.85;2.33;;;;;;;;;;6150066;23;20033;-70
2024/04/04 06:11:20;;;;;;;8.68;2.75;;;;;;;;;;6142269;23;20075;-70
2024/04/04 06:13:46;;;;;;;12.75;2.50;;;;;;;;;;6150176;23;20098;-70
2024/04/04 06:16:11;;;;;;;10.75;2.70;;;;;;;;;;6149661;23;20074;-69
2024/04/04 06:18:37;;;;;;;7.50;2.25;;;;;;;;;;6139204;23;20033;-70
2024/04/04 06:21:03;;;;;;;8.23;2.70;;;;;;;;;;6145016;23;20071;-69
2024/04/04 06:23:29;;;;;;;8.80;2.58;;;;;;;;;;6142280;23;20025;-70
2024/04/04 06:25:54;;;;;;;7.75;2.50;;;;;;;;;;6149971;23;20025;-69
2024/04/04 06:28:20;;;;;;;9.55;2.70;;;;;;;;;;6149742;23;20662;-71
2024/04/04 06:30:45;;;;;;;8.50;2.55;;;;;;;;;;6143074;23;20029;-70
2024/04/04 06:33:11;;;;;;;9.55;2.40;;;;;;;;;;6169131;23;20043;-69
2024/04/04 06:35:36;;;;;;;7.40;2.55;;;;;;;;;;6139197;23;20017;-70
2024/04/04 06:38:02;;;;;;;6.60;2.35;;;;;;;;;;6150049;23;20021;-69
2024/04/04 06:40:31;;;;;;;10.63;2.67;;;;;;;;;;6151682;23;20029;-69
2024/04/04 06:42:57;;;;;;;8.38;3.47;;;;;;;;;;6147796;23;20032;-69
2024/04/04 06:45:22;;;;;;;11.45;3.17;;;;;;;;;;6151488;23;20092;-69
2024/04/04 06:47:55;;;;;;;11.88;2.53;;;;;;;;;;6139473;23;20034;-69
2024/04/04 06:50:20;;;;;;;8.48;2.40;;;;;;;;;;6146749;23;20025;-69
2024/04/04 06:52:46;;;;;;;9.80;2.85;;;;;;;;;;6169381;23;20017;-69
2024/04/04 06:55:11;;;;;;;9.82;2.47;;;;;;;;;;6150260;23;20021;-69
2024/04/04 06:57:37;;;;;;;7.70;2.25;;;;;;;;;;6151279;23;20048;-69
2024/04/04 07:00:02;;;;;;;7.78;2.72;;;;;;;;;;6144696;23;20131;-69
2024/04/04 07:02:28;;;;;;;8.07;2.25;;;;;;;;;;6142209;23;20029;-69
2024/04/04 07:04:53;;;;;;;11.32;2.22;;;;;;;;;;6143774;23;20025;-69
2024/04/04 07:07:19;;;;;;;10.20;2.10;;;;;;;;;;6151031;23;20032;-69
2024/04/04 07:09:44;;;;;;;8.10;2.35;;;;;;;;;;6149604;23;20519;-69
2024/04/04 07:12:10;;;;;;;7.68;2.90;;;;;;;;;;6142764;23;20485;-70
2024/04/04 07:14:35;;;;;;;7.88;2.13;;;;;;;;;;6144879;23;20031;-69
2024/04/04 07:17:01;;;;;;;7.05;2.17;;;;;;;;;;6139468;23;20025;-69
2024/04/04 07:19:26;;;;;;;9.55;2.47;;;;;;;;;;6124933;23;20020;-69
2024/04/04 07:21:52;;;;;;;4.80;2.00;;;;;;;;;;6150288;23;20120;-69
2024/04/04 07:24:17;;;;;;;6.47;2.22;;;;;;;;;;6141903;23;20112;-69
2024/04/04 07:26:48;;;;;;;7.30;2.25;;;;;;;;;;6150237;23;20025;-69
2024/04/04 07:29:14;;;;;;;8.05;2.00;;;;;;;;;;6141086;23;20071;-69
2024/04/04 07:31:39;;;;;;;9.25;2.30;;;;;;;;;;6149472;23;20336;-69
2024/04/04 07:34:05;;;;;;;4.07;1.65;;;;;;;;;;6142886;23;20020;-69
2024/04/04 07:36:30;;;;;;;8.32;2.15;;;;;;;;;;6148508;23;20064;-70
2024/04/04 07:38:55;;;;;;;8.45;1.88;;;;;;;;;;6145276;23;20320;-69
2024/04/04 07:41:21;;;;;;;6.72;2.00;;;;;;;;;;6136770;23;20051;-69
2024/04/04 07:43:47;;;;;;;6.55;1.88;;;;;;;;;;6149315;23;20350;-69
2024/04/04 07:46:13;;;;;;;7.55;1.83;;;;;;;;;;6142257;23;20136;-69
2024/04/04 07:48:42;;;;;;;6.75;2.03;;;;;;;;;;6148759;23;20064;-70
2024/04/04 07:51:09;;;;;;;7.10;2.22;;;;;;;;;;6148095;23;20506;-70
2024/04/04 07:53:34;;;;;;;6.80;1.75;;;;;;;;;;6139024;23;20076;-70
2024/04/04 07:56:00;;;;;;;2.75;1.55;;;;;;;;;;6120490;23;20024;-69
2024/04/04 07:58:26;;;;;;;6.18;1.73;;;;;;;;;;6141596;23;20025;-69
2024/04/04 08:00:52;;;;;;;6.35;2.25;;;;;;;;;;6149595;23;20063;-69
2024/04/04 08:03:18;;;;;;;5.90;2.17;;;;;;;;;;6148562;23;20036;-69
2024/04/04 08:05:44;;;;;;;6.15;2.10;;;;;;;;;;6142262;23;20024;-68
2024/04/04 08:08:09;;;;;;;6.30;2.30;;;;;;;;;;6144457;23;20027;-69
2024/04/04 08:10:35;;;;;;;8.68;2.05;;;;;;;;;;6138661;23;20027;-69
2024/04/04 08:13:01;;;;;;;5.68;1.67;;;;;;;;;;6149148;23;20029;-68
2024/04/04 08:15:27;;;;;;;5.38;2.00;;;;;;;;;;6149041;23;20072;-69
2024/04/04 08:17:53;;;;;;;5.13;1.60;;;;;;;;;;6142894;23;20384;-69
2024/04/04 08:20:18;;;;;;;4.07;1.67;;;;;;;;;;6149063;23;20025;-70
2024/04/04 08:22:46;;;;;;;5.50;1.67;;;;;;;;;;6138390;23;20018;-69
2024/04/04 08:25:13;;;;;;;5.60;1.77;;;;;;;;;;6145501;23;20043;-69
2024/04/04 08:27:39;;;;;;;7.85;1.88;;;;;;;;;;6145248;23;20052;-69
2024/04/04 08:30:05;;;;;;;3.90;1.60;;;;;;;;;;6149650;23;20025;-70
2024/04/04 08:32:31;;;;;;;10.93;1.88;;;;;;;;;;6150770;23;20020;-70
2024/04/04 08:34:58;;;;;;;7.03;1.77;;;;;;;;;;6144444;23;20087;-69
2024/04/04 08:37:23;;;;;;;6.00;1.50;;;;;;;;;;6146012;23;20399;-69
2024/04/04 08:39:48;;;;;;;5.10;1.60;;;;;;;;;;6139726;23;20025;-69
2024/04/04 08:42:14;;;;;;;4.60;1.50;;;;;;;;;;6149373;23;20028;-69
2024/04/04 08:44:42;;;;;;;5.28;1.60;;;;;;;;;;6150913;23;20021;-69
2024/04/04 08:47:10;;;;;;;3.78;1.45;;;;;;;;;;6144563;23;20728;-69
2024/04/04 08:49:37;;;;;;;4.22;1.70;;;;;;;;;;6150465;23;20076;-69
2024/04/04 08:52:03;;;;;;;7.28;2.40;;;;;;;;;;6162622;23;20032;-70
2024/04/04 08:54:29;;;;;;;2.67;1.50;;;;;;;;;;6148681;23;20036;-69
2024/04/04 08:56:54;;;;;;;5.28;1.98;;;;;;;;;;6150757;23;20059;-69
2024/04/04 08:59:21;;;;;;;7.25;2.05;;;;;;;;;;6119644;23;20775;-69
2024/04/04 09:01:46;;;;;;;7.10;1.90;;;;;;;;;;6126434;23;20044;-69
2024/04/04 09:04:22;;;;;;;7.55;2.28;;;;;;;;;;6141459;23;20029;-70
2024/04/04 09:06:48;;;;;;;6.78;1.58;;;;;;;;;;6144907;23;20029;-69
2024/04/04 09:09:14;;;;;;;5.32;1.75;;;;;;;;;;6143506;23;20087;-69
2024/04/04 09:11:39;;;;;;;2.72;1.75;;;;;;;;;;6174086;23;20560;-69
2024/04/04 09:14:09;;;;;;;5.13;1.73;;;;;;;;;;6150278;23;20025;-71
2024/04/04 09:16:34;;;;;;;3.67;1.85;;;;;;;;;;6144031;23;20335;-70
2024/04/04 09:19:06;;;;;;;4.38;1.83;;;;;;;;;;6146752;23;20091;-69
2024/04/04 09:21:32;;;;;;;4.43;1.98;;;;;;;;;;6115415;23;20025;-69
2024/04/04 09:23:58;;;;;;;6.28;2.00;;;;;;;;;;6150813;23;20108;-70
2024/04/04 09:26:23;;;;;;;4.05;1.80;;;;;;;;;;6150801;23;20024;-69
2024/04/04 09:28:49;;;;;;;6.97;2.60;;;;;;;;;;6143077;23;20462;-69
2024/04/04 09:31:17;;;;;;;7.03;2.13;;;;;;;;;;6150189;23;20025;-70
2024/04/04 09:33:43;;;;;;;2.80;2.10;;;;;;;;;;6139450;23;20021;-70
2024/04/04 09:36:08;;;;;;;5.90;2.35;;;;;;;;;;6145117;23;20020;-70
2024/04/04 09:38:34;;;;;;;4.10;2.10;;;;;;;;;;6146827;23;20024;-70
2024/04/04 09:41:01;;;;;;;6.13;2.28;;;;;;;;;;6148566;23;20032;-70
2024/04/04 09:43:27;;;;;;;3.90;1.83;;;;;;;;;;6149235;23;20024;-70
2024/04/04 09:45:53;;;;;;;5.15;1.88;;;;;;;;;;6143830;23;20103;-69
2024/04/04 09:48:19;;;;;;;4.97;1.80;;;;;;;;;;6144818;23;20025;-70
2024/04/04 09:50:45;;;;;;;9.65;2.50;;;;;;;;;;6139160;23;20021;-70
2024/04/04 09:53:11;;;;;;;7.18;2.65;;;;;;;;;;6149282;23;20136;-69
2024/04/04 09:55:36;;;;;;;5.50;1.73;;;;;;;;;;6150341;23;20390;-70
2024/04/04 09:58:02;;;;;;;5.53;2.13;;;;;;;;;;6142983;23;20028;-70
2024/04/04 10:00:28;;;;;;;8.02;2.15;;;;;;;;;;6175107;23;20784;-70
2024/04/04 10:02:54;;;;;;;3.65;1.80;;;;;;;;;;6137873;23;20025;-71
2024/04/04 10:05:22;;;;;;;4.97;1.75;;;;;;;;;;6145610;23;20021;-70
2024/04/04 10:07:48;;;;;;;5.13;1.50;;;;;;;;;;6149838;23;20021;-69
2024/04/04 10:10:14;;;;;;;3.95;1.55;;;;;;;;;;6142710;23;20083;-70
2024/04/04 10:12:42;;;;;;;6.15;1.50;;;;;;;;;;6150004;23;20017;-69
2024/04/04 10:15:14;;;;;;;5.53;2.13;;;;;;;;;;6142837;23;20025;-70
2024/04/04 10:17:42;;;;;;;2.45;1.73;;;;;;;;;;6144406;23;20017;-69
2024/04/04 10:20:09;;;;;;;2.80;1.40;;;;;;;;;;6147583;23;20036;-69
2024/04/04 10:22:35;;;;;;;3.55;1.58;;;;;;;;;;6118271;23;20029;-70
2024/04/04 10:25:02;;;;;;;2.50;1.30;;;;;;;;;;6150239;23;20021;-70
2024/04/04 10:27:28;;;;;;;3.58;1.42;;;;;;;;;;6143278;23;20025;-69
2024/04/04 10:29:54;;;;;;;3.53;1.45;;;;;;;;;;6145002;23;20587;-70
2024/04/04 10:32:20;;;;;;;3.28;1.20;;;;;;;;;;6137907;23;20481;-69
2024/04/04 10:34:46;;;;;;;4.38;1.40;;;;;;;;;;6174325;23;20103;-69
2024/04/04 10:37:14;;;;;;;4.28;1.70;;;;;;;;;;6148413;23;20052;-69
2024/04/04 10:39:40;;;;;;;3.92;1.85;;;;;;;;;;6167983;23;20021;-69
2024/04/04 10:42:06;;;;;;;3.13;1.73;;;;;;;;;;6148984;23;20108;-71
2024/04/04 10:44:32;;;;;;;4.63;1.60;;;;;;;;;;6139614;23;20025;-70
2024/04/04 10:46:58;;;;;;;5.13;1.50;;;;;;;;;;6119862;23;20961;-69
2024/04/04 10:49:27;;;;;;;4.93;1.98;;;;;;;;;;6149203;23;20112;-69
2024/04/04 10:52:00;;;;;;;4.75;1.83;;;;;;;;;;6142530;23;20044;-70
2024/04/04 10:54:26;;;;;;;3.58;1.50;;;;;;;;;;6149196;23;20029;-69
2024/04/04 10:56:52;;;;;;;5.38;1.85;;;;;;;;;;6142902;23;20029;-71
2024/04/04 10:59:18;;;;;;;4.68;1.25;;;;;;;;;;6145634;23;20108;-71
2024/04/04 11:01:44;;;;;;;3.53;1.05;;;;;;;;;;6142755;23;20631;-73
2024/04/04 11:04:11;;;;;;;3.92;0.98;;;;;;;;;;6145139;23;20024;-72
2024/04/04 11:06:36;;;;;;;3.92;1.40;;;;;;;;;;6149755;23;20459;-72
2024/04/04 11:09:10;;;;;;;5.53;1.40;;;;;;;;;;6142804;23;20035;-72
2024/04/04 11:11:35;;;;;;;4.35;1.15;;;;;;;;;;6149058;23;20021;-72
2024/04/04 11:14:01;;;;;;;4.30;1.10;;;;;;;;;;6138735;23;20091;-73
2024/04/04 11:16:26;;;;;;;2.78;1.27;;;;;;;;;;6144349;23;20095;-71
2024/04/04 11:18:53;;;;;;;2.42;0.93;;;;;;;;;;6149320;23;20017;-71
2024/04/04 11:21:18;;;;;;;3.72;1.10;;;;;;;;;;6143209;23;20040;-69
2024/04/04 11:23:44;;;;;;;4.00;1.00;;;;;;;;;;6149387;23;20028;-70
2024/04/04 11:26:09;;;;;;;6.72;1.10;;;;;;;;;;6143085;23;20021;-71
2024/04/04 11:28:35;;;;;;;5.28;1.00;;;;;;;;;;6118619;23;20116;-70
2024/04/04 11:31:02;;;;;;;6.07;1.08;;;;;;;;;;6146245;23;20059;-68
2024/04/04 11:33:28;;;;;;;4.70;0.93;;;;;;;;;;6141826;23;20018;-67
2024/04/04 11:35:55;;;;;;;5.30;0.85;;;;;;;;;;6124440;23;20053;-68
2024/04/04 11:38:20;;;;;;;7.45;1.10;;;;;;;;;;6142185;23;20020;-67
2024/04/04 11:40:46;;;;;;;3.97;0.90;;;;;;;;;;6148948;23;20091;-67
2024/04/04 11:43:11;;;;;;;6.75;0.98;;;;;;;;;;6141380;23;20021;-68
2024/04/04 11:45:36;;;;;;;5.65;1.17;;;;;;;;;;6142490;23;20036;-67
2024/04/04 11:48:03;;;;;;;6.50;1.30;;;;;;;;;;6149305;23;20029;-68
2024/04/04 11:50:31;;;;;;;6.88;1.60;;;;;;;;;;6141472;23;20025;-68
2024/04/04 11:53:01;;;;;;;4.55;1.20;;;;;;;;;;6149463;23;20612;-67
2024/04/04 11:55:27;;;;;;;5.22;1.40;;;;;;;;;;6142609;23;20033;-73
2024/04/04 11:57:53;;;;;;;7.35;1.27;;;;;;;;;;6117631;23;20021;-68
2024/04/04 12:00:20;;;;;;;8.98;1.67;;;;;;;;;;6150911;23;20813;-70
2024/04/04 12:02:46;;;;;;;7.25;1.35;;;;;;;;;;6144826;23;20017;-69
2024/04/04 12:05:11;;;;;;;6.00;1.50;;;;;;;;;;6150654;23;20474;-70
2024/04/04 12:07:40;;;;;;;;;;;;;;;;;;6145147;23;20052;-68
2024/04/04 12:10:06;;;;;;;7.22;1.30;;;;;;;;;;6145531;23;19916;-69
2024/04/04 12:12:31;;;;;;;6.45;1.42;;;;;;;;;;6124754;23;20025;-70
2024/04/04 12:14:57;;;;;;;8.23;1.60;;;;;;;;;;6145225;23;20028;-70
2024/04/04 12:17:23;;;;;;;5.75;1.45;;;;;;;;;;6126294;23;20024;-70
2024/04/04 12:19:48;;;;;;;8.25;1.55;;;;;;;;;;6145307;23;20060;-69
2024/04/04 12:22:13;;;;;;;9.80;1.33;;;;;;;;;;6147503;23;20671;-70
2024/04/04 12:24:39;;;;;;;5.68;1.20;;;;;;;;;;6145994;23;20035;-70
2024/04/04 12:27:05;;;;;;;6.65;1.58;;;;;;;;;;6142885;23;20358;-70
2024/04/04 12:29:31;;;;;;;8.50;1.60;;;;;;;;;;6151809;23;20072;-69
2024/04/04 12:31:56;;;;;;;7.75;1.35;;;;;;;;;;6119089;23;20837;-69
2024/04/04 12:34:22;;;;;;;8.77;1.30;;;;;;;;;;6150825;23;20093;-69
2024/04/04 12:36:47;;;;;;;11.65;2.97;;;;;;;;;;6121751;23;20325;-68
2024/04/04 12:39:14;;;;;;;15.70;2.67;;;;;;;;;;6138977;23;20028;-69
2024/04/04 12:41:43;;;;;;;8.93;1.65;;;;;;;;;;6126302;23;20024;-69
2024/04/04 12:44:09;;;;;;;10.05;1.77;;;;;;;;;;6118328;23;20029;-68
2024/04/04 12:46:39;;;;;;;7.63;1.65;;;;;;;;;;6151351;23;20021;-69
2024/04/04 12:49:05;;;;;;;14.27;2.30;;;;;;;;;;6145795;23;20079;-70
2024/04/04 12:51:31;;;;;;;13.13;2.35;;;;;;;;;;6170736;23;20025;-69
2024/04/04 12:53:56;;;;;;;13.38;2.88;;;;;;;;;;6146129;23;20750;-68
2024/04/04 12:56:22;;;;;;;19.45;2.50;;;;;;;;;;6143728;23;20021;-68
2024/04/04 12:58:48;;;;;;;15.13;3.45;;;;;;;;;;6150616;23;20450;-68
2024/04/04 13:01:13;;;;;;;12.32;2.38;;;;;;;;;;6120132;23;20025;-69
2024/04/04 13:03:41;;;;;;;16.13;2.95;;;;;;;;;;6150818;23;20035;-68
2024/04/04 13:06:09;;;;;;;14.80;2.33;;;;;;;;;;6145402;23;20336;-70
2024/04/04 13:08:34;;;;;;;13.70;2.75;;;;;;;;;;6138302;23;21015;-70
2024/04/04 13:11:00;;;;;;;14.27;2.90;;;;;;;;;;6150209;23;20025;-69
2024/04/04 13:13:28;;;;;;;16.20;2.58;;;;;;;;;;6143546;23;20025;-68
2024/04/04 13:15:54;;;;;;;19.35;2.88;;;;;;;;;;6150642;23;20125;-68
2024/04/04 13:18:20;;;;;;;14.02;2.88;;;;;;;;;;6126120;23;20037;-70
2024/04/04 13:20:45;;;;;;;13.80;2.53;;;;;;;;;;6137256;23;20025;-69
2024/04/04 13:23:11;;;;;;;16.20;2.80;;;;;;;;;;6148018;23;20032;-69
2024/04/04 13:25:36;;;;;;;16.13;2.83;;;;;;;;;;6143075;23;20083;-68
2024/04/04 13:28:02;;;;;;;20.95;3.35;;;;;;;;;;6150938;23;20024;-68
2024/04/04 13:30:28;;;;;;;15.85;3.05;;;;;;;;;;6150127;23;20021;-70
2024/04/04 13:32:53;;;;;;;13.50;2.42;;;;;;;;;;6141170;23;20950;-70
2024/04/04 13:35:19;;;;;;;16.83;2.42;;;;;;;;;;6143873;23;20029;-70
2024/04/04 13:37:44;;;;;;;15.18;2.40;;;;;;;;;;6143346;23;20091;-69
2024/04/04 13:40:10;;;;;;;10.82;2.20;;;;;;;;;;6149818;23;20028;-69
2024/04/04 13:42:39;;;;;;;11.45;2.05;;;;;;;;;;6149226;23;20083;-69
2024/04/04 13:45:10;;;;;;;14.30;2.45;;;;;;;;;;6146429;23;20344;-69
2024/04/04 13:47:37;;;;;;;20.95;2.65;;;;;;;;;;6146648;23;20044;-70
2024/04/04 13:50:04;;;;;;;16.98;3.00;;;;;;;;;;6138959;23;20036;-70
2024/04/04 13:52:30;;;;;;;15.90;2.83;;;;;;;;;;6150505;23;20079;-68
2024/04/04 13:54:58;;;;;;;13.20;3.03;;;;;;;;;;6143454;23;20056;-69
2024/04/04 13:57:24;;;;;;;14.35;2.05;;;;;;;;;;6149734;23;20021;-68
2024/04/04 13:59:50;;;;;;;15.05;2.85;;;;;;;;;;6150038;23;20565;-68
2024/04/04 14:02:15;;;;;;;11.90;3.05;;;;;;;;;;6114303;23;20513;-70
2024/04/04 14:04:42;;;;;;;13.88;3.10;;;;;;;;;;6146072;23;20017;-69
2024/04/04 14:07:08;;;;;;;15.35;2.58;;;;;;;;;;6142823;23;20021;-68
2024/04/04 14:09:33;;;;;;;16.40;3.28;;;;;;;;;;6150089;23;20068;-69
2024/04/04 14:11:59;;;;;;;15.70;2.50;;;;;;;;;;6150099;23;20025;-69
2024/04/04 14:14:26;;;;;;;14.95;2.47;;;;;;;;;;6142541;23;20025;-69
2024/04/04 14:16:52;;;;;;;19.33;2.40;;;;;;;;;;6121133;23;20036;-70
2024/04/04 14:19:18;;;;;;;17.92;2.58;;;;;;;;;;6163335;23;20067;-69
2024/04/04 14:21:46;;;;;;;10.13;2.35;;;;;;;;;;6149248;23;20059;-69
2024/04/04 14:24:12;;;;;;;12.63;2.08;;;;;;;;;;6144479;23;20079;-70
2024/04/04 14:26:41;;;;;;;13.40;2.30;;;;;;;;;;6149601;23;20052;-68
2024/04/04 14:29:06;;;;;;;14.35;2.95;;;;;;;;;;6149271;23;20032;-69
2024/04/04 14:31:32;;;;;;;13.68;2.60;;;;;;;;;;6139282;23;20096;-69
2024/04/04 14:33:58;;;;;;;15.15;3.10;;;;;;;;;;6145618;23;20637;-69